Latest Weather Observations for Wilsons Promontory

IDV60801

Issued at 9:35 pm EST Friday 1 August 2014 (issued every 30 minutes, with the page automatically refreshed every 10 minutes)

About weather observations | Map of weather stations | Latest weather observations for VIC | Other Formats
Station Details ID: 085096 Name: WILSONS PROMONTORY LIGHTHOUSE Lat: -39.13 Lon: 146.42 Height: 95.0 m
Data from the previous 72 hours. | See also: Recent months at Wilsons Promontory
Date/Time
EST
Temp
°C
App
Temp
°C
Dew
Point
Rel
Hum
%
Delta-T
°C
Wind Press
QNH
hPa
Press
MSL
hPa
Rain
since 9 am
mm
Dir
 
Spd
km/h
Gust
km/h
Spd
kts
Gust
kts
01/09:30pm 9.2 -0.2 2.5 63 2.8 SSW 41 72 22 39 1013.3 - 18.0
01/09:24pm 9.3 1.3 1.9 60 3.1 SSW 33 76 18 41 1012.9 - 18.0
01/09:17pm 9.3 -3.2 1.9 60 3.1 SW 57 82 31 44 1012.7 - 18.0
01/09:15pm 9.3 -4.4 1.9 60 3.1 SSW 63 82 34 44 1012.6 - 18.0
01/09:07pm 9.3 -0.1 2.4 62 2.9 SW 41 91 22 49 1012.2 - 18.0
01/09:04pm 9.4 -5.5 2.7 63 2.9 SW 70 91 38 49 1012.2 - 18.0
01/09:00pm 9.3 -6.0 2.4 62 2.9 SW 72 89 39 48 1012.1 1012.2 18.0
01/08:58pm 9.4 -5.5 2.3 61 3.0 SW 70 89 38 48 1012.0 - 18.0
01/08:50pm 9.6 0.2 2.2 60 3.1 SW 41 91 22 49 1011.7 - 18.0
01/08:46pm 9.4 -6.1 1.1 56 3.4 SW 72 98 39 53 1011.4 - 18.0
01/08:44pm 9.5 -0.3 2.1 60 3.1 SW 43 98 23 53 1011.4 - 18.0
01/08:30pm 9.7 -4.0 1.6 57 3.4 SW 63 96 34 52 1010.7 - 18.0
01/08:02pm 9.7 -3.1 2.3 60 3.1 SSW 59 91 32 49 1010.2 - 18.0
01/08:00pm 9.6 1.6 1.5 57 3.4 W 33 91 18 49 1010.1 - 18.0
01/07:59pm 9.6 0.8 1.3 56 3.4 W 37 91 20 49 1009.9 - 18.0
01/07:57pm 9.6 -5.3 1.0 55 3.5 SW 69 91 37 49 1009.7 - 18.0
01/07:55pm 9.6 -0.5 1.8 58 3.3 SSW 44 87 24 47 1010.2 - 18.0
01/07:54pm 9.6 -0.5 1.5 57 3.4 SSW 44 87 24 47 1010.2 - 18.0
01/07:30pm 9.4 -5.0 2.3 61 3.0 SW 67 96 36 52 1009.4 - 18.0
01/07:29pm 9.5 -5.3 2.8 63 2.9 SW 70 96 38 52 1009.5 - 18.0
01/07:28pm 9.4 -7.8 2.5 62 2.9 SW 82 96 44 52 1009.3 - 18.0
01/07:25pm 9.6 0.4 3.4 65 2.7 SSW 41 85 22 46 1009.6 - 18.0
01/07:24pm 9.7 1.2 3.2 64 2.8 S 37 85 20 46 1009.5 - 18.0
01/07:21pm 9.4 -4.6 2.0 60 3.1 SW 65 85 35 46 1009.1 - 18.0
01/07:20pm 9.4 -5.2 2.9 64 2.8 SW 69 91 37 49 1009.3 - 18.0
01/07:13pm 9.4 -0.4 2.3 61 3.0 SSW 43 91 23 49 1009.0 - 18.0
01/07:00pm 9.2 -6.1 2.5 63 2.8 SW 72 91 39 49 1008.7 - 18.0
01/06:48pm 9.3 -3.9 2.6 63 2.9 SW 61 98 33 53 1008.1 - 18.0
01/06:47pm 9.4 -2.4 2.9 64 2.8 SW 54 98 29 53 1008.3 - 18.0
01/06:36pm 9.3 -8.8 2.4 62 2.9 SW 87 106 47 57 1007.3 - 18.0
01/06:30pm 9.2 -9.7 2.5 63 2.8 SW 91 102 49 55 1007.1 - 18.0
01/06:16pm 9.3 -7.9 2.4 62 2.9 SW 82 102 44 55 1006.9 - 18.0
01/06:13pm 9.3 -8.9 1.9 60 3.1 SW 87 102 47 55 1006.6 - 18.0
01/06:11pm 9.4 -3.7 3.2 65 2.7 SW 61 95 33 51 1007.0 - 18.0
01/06:00pm 9.2 -8.2 2.3 62 2.9 SW 83 102 45 55 1006.1 1006.1 18.0
01/05:52pm 9.1 -9.5 2.0 61 3.0 SW 89 113 48 61 1005.6 - 18.0
01/05:51pm 9.1 -10.3 1.5 59 3.2 SW 93 113 50 61 1005.8 - 18.0
01/05:42pm 9.1 -3.6 0.8 56 3.4 SW 57 109 31 59 1006.0 - 18.0
01/05:30pm 8.7 -8.6 2.7 66 2.5 SW 83 109 45 59 1005.3 - 18.0
01/05:16pm 8.1 -9.6 2.8 69 2.2 SW 85 122 46 66 1004.6 - 18.0
01/05:14pm 8.0 -8.3 3.1 71 2.1 SW 78 122 42 66 1005.1 - 18.0
01/05:12pm 8.2 -0.3 3.1 70 2.2 S 37 122 20 66 1005.1 - 18.0
01/05:11pm 7.8 -2.0 2.3 68 2.3 SW 43 122 23 66 1005.0 - 18.0
01/05:04pm 8.0 -7.7 4.2 77 1.7 SW 76 120 41 65 1005.0 - 18.0
01/05:03pm 7.7 -7.3 3.9 77 1.6 SW 72 120 39 65 1005.3 - 18.0
01/05:00pm 7.4 -13.8 3.5 76 1.7 SW 104 122 56 66 1004.0 - 18.0
01/04:57pm 7.1 -14.1 3.5 78 1.5 SW 104 122 56 66 1003.7 - 18.0
01/04:52pm 7.1 -13.7 3.7 79 1.5 SW 102 119 55 64 1003.3 - 18.0
01/04:30pm 7.1 -5.1 3.7 79 1.5 W 57 106 31 57 1004.7 - 16.0
01/04:16pm 8.5 -9.2 4.7 77 1.7 WSW 87 109 47 59 1002.8 - 16.0
01/04:15pm 8.1 -4.0 4.1 76 1.7 W 57 109 31 59 1002.7 - 16.0
01/04:11pm 8.7 -1.8 3.7 71 2.2 W 48 80 26 43 1003.8 - 16.0
01/04:00pm 8.1 -0.4 3.0 70 2.2 W 37 56 20 30 1004.4 - 16.0
01/03:55pm 7.7 -0.9 2.6 70 2.1 W 37 67 20 36 1004.4 - 16.0
01/03:51pm 7.8 -1.2 2.7 70 2.1 W 39 80 21 43 1004.3 - 16.0
01/03:37pm 6.9 -6.7 2.2 72 1.9 W 63 115 34 62 1003.7 - 15.8
01/03:30pm 7.4 -9.7 2.9 73 1.9 WSW 82 115 44 62 1002.0 - 15.8
01/03:17pm 8.2 -13.2 4.4 77 1.7 WSW 106 124 57 67 1000.5 - 15.8
01/03:14pm 8.1 -14.7 3.8 74 1.9 WSW 113 124 61 67 999.8 - 15.8
01/03:12pm 9.0 -8.7 4.6 74 2.0 SW 87 109 47 59 1000.9 - 15.8
01/03:11pm 8.8 -8.0 4.4 74 1.9 SW 82 91 44 49 1001.4 - 15.8
01/03:00pm 8.1 -3.8 4.5 78 1.6 SW 56 76 30 41 1001.9 1002.0 15.8
01/02:46pm 7.2 -4.5 3.4 77 1.6 SW 54 78 29 42 1001.5 - 15.6
01/02:43pm 7.4 -6.8 3.1 74 1.8 WSW 67 76 36 41 1001.9 - 15.6
01/02:41pm 8.6 0.6 4.0 73 2.0 W 35 72 19 39 1002.1 - 15.6
01/02:35pm 8.5 1.2 4.5 76 1.8 W 32 52 17 28 1002.4 - 15.6
01/02:30pm 8.4 1.5 4.6 77 1.7 W 30 44 16 24 1002.5 - 15.6
01/02:00pm 7.5 -0.8 4.3 80 1.4 W 37 57 20 31 1001.7 - 15.6
01/01:35pm 6.8 -2.3 3.9 82 1.2 W 41 61 22 33 1001.2 - 15.6
01/01:30pm 6.7 -2.0 4.2 84 1.1 W 39 54 21 29 1001.1 - 15.6
01/01:20pm 6.1 -2.2 4.1 87 0.9 W 37 56 20 30 1000.9 - 15.6
01/01:19pm 6.2 -2.1 4.2 87 0.9 W 37 54 20 29 1000.9 - 15.6
01/01:00pm 4.7 -3.1 2.9 88 0.7 NW 33 54 18 29 1001.2 - 15.6
01/12:55pm 4.5 -3.7 2.7 88 0.7 NW 35 54 19 29 1001.1 - 15.4
01/12:52pm 4.4 -4.2 2.6 88 0.7 NW 37 50 20 27 1001.1 - 15.4
01/12:47pm 4.5 -2.4 2.8 89 0.7 W 28 54 15 29 1001.7 - 14.8
01/12:31pm 3.7 -5.0 1.9 88 0.7 WNW 37 61 20 33 1001.7 - 12.0
01/12:30pm 3.8 -4.9 2.0 88 0.7 WNW 37 54 20 29 1001.8 - 11.6
01/12:29pm 3.9 -5.5 2.1 88 0.7 WNW 41 54 22 29 1001.8 - 11.4
01/12:00pm 5.4 -4.4 3.6 88 0.8 W 44 63 24 34 1000.9 1001.0 5.8
01/11:46am 4.6 -4.4 2.6 87 0.8 W 39 69 21 37 1000.7 - 5.2
01/11:30am 5.2 -8.0 2.2 81 1.2 W 61 100 33 54 999.4 - 1.6
01/11:26am 6.9 -7.2 3.5 79 1.5 W 67 100 36 54 998.8 - 1.0
01/11:01am 7.4 0.6 2.9 73 1.9 W 28 78 15 42 998.9 - 0.2
01/11:00am 7.4 0.9 2.9 73 1.9 W 26 78 14 42 998.8 - 0.2
01/10:59am 7.4 0.9 2.9 73 1.9 W 26 78 14 42 998.8 - 0.2
01/10:47am 7.4 0.5 2.7 72 2.0 WNW 28 56 15 30 999.1 - 0.2
01/10:30am 7.3 1.1 2.4 71 2.0 WNW 24 85 13 46 999.4 - 0.2
01/10:23am 7.3 -1.0 2.2 70 2.1 WNW 35 85 19 46 999.2 - 0.2
01/10:22am 7.3 0.3 2.2 70 2.1 WNW 28 65 15 35 999.4 - 0.0
01/10:21am 7.5 1.0 2.4 70 2.1 W 26 65 14 35 999.3 - 0.0
01/10:16am 7.6 -1.4 2.3 69 2.2 NW 39 65 21 35 999.1 - 0.0
01/10:09am 7.9 1.0 2.6 69 2.2 N 28 76 15 41 999.2 - 0.0
01/10:06am 7.8 2.6 2.5 69 2.2 WNW 19 76 10 41 999.2 - 0.0
01/10:00am 7.5 -2.3 2.2 69 2.2 NW 43 76 23 41 998.8 - 0.0
01/09:59am 7.5 -1.2 2.2 69 2.2 NW 37 76 20 41 998.7 - 0.0
01/09:47am 7.7 -3.0 2.4 69 2.2 W 48 76 26 41 998.6 - 0.0
01/09:30am 7.5 -1.1 2.4 70 2.1 WNW 37 87 20 47 998.9 - 0.0
01/09:23am 7.3 -0.4 2.2 70 2.1 WNW 32 87 17 47 998.6 - 0.0
01/09:01am 7.0 -0.9 2.5 73 1.9 W 33 65 18 35 998.3 - 0.0
01/09:00am 6.9 0.4 2.4 73 1.9 NNW 26 65 14 35 998.5 998.5 16.4
01/08:41am 6.7 -0.2 2.4 74 1.8 NNW 28 61 15 33 998.4 - 16.4
01/08:30am 6.9 1.1 2.2 72 1.9 N 22 54 12 29 998.6 - 16.0
01/08:05am 7.0 0.0 2.1 71 2.0 NNW 28 59 15 32 998.4 - 15.8
01/08:00am 6.9 0.7 2.0 71 2.0 NNW 24 50 13 27 998.4 - 15.8
01/07:32am 6.8 -0.2 1.9 71 2.0 NNW 28 63 15 34 997.5 - 15.8
01/07:30am 6.8 0.2 1.9 71 2.0 NNW 26 57 14 31 997.5 - 15.8
01/07:09am 6.8 -3.2 2.1 72 1.9 N 44 65 24 35 997.4 - 15.8
01/07:00am 6.8 1.3 2.1 72 1.9 NNW 20 54 11 29 997.8 - 15.8
01/06:30am 6.6 -1.1 2.3 74 1.8 NNW 32 65 17 35 997.5 - 15.8
01/06:00am 6.6 -0.4 2.1 73 1.9 NNW 28 56 15 30 997.3 997.3 15.8
01/05:30am 7.0 0.1 2.7 74 1.8 NNW 28 52 15 28 996.9 - 15.8
01/05:00am 7.2 0.0 2.9 74 1.8 NNW 30 70 16 38 996.9 - 15.8
01/04:55am 7.2 -1.0 2.9 74 1.8 NNW 35 70 19 38 996.7 - 15.8
01/04:30am 7.0 0.2 2.9 75 1.7 NNW 28 50 15 27 997.0 - 15.8
01/04:01am 7.1 0.3 3.3 77 1.6 NNW 28 69 15 37 996.9 - 15.8
01/04:00am 7.2 0.8 3.4 77 1.6 NNW 26 69 14 37 997.0 - 15.8
01/03:54am 7.2 0.5 3.4 77 1.6 NNW 28 69 15 37 996.7 - 15.8
01/03:43am 7.3 0.6 3.7 78 1.5 N 28 50 15 27 996.7 - 15.8
01/03:30am 7.7 3.9 4.1 78 1.6 NNW 13 44 7 24 997.3 - 15.8
01/03:08am 8.0 0.6 4.2 77 1.7 W 32 65 17 35 997.4 - 15.8
01/03:00am 7.8 3.7 4.2 78 1.6 WNW 15 44 8 24 997.7 997.7 15.8
01/02:37am 7.8 0.3 4.7 81 1.4 W 33 83 18 45 997.2 - 15.8
01/02:32am 7.6 0.7 4.7 82 1.3 WNW 30 48 16 26 997.4 - 15.8
01/02:30am 7.5 3.8 4.6 82 1.3 NW 13 46 7 25 997.6 - 15.8
01/02:00am 5.8 -0.2 3.1 83 1.1 W 24 46 13 25 997.6 - 15.8
01/01:33am 6.6 -0.2 3.2 79 1.4 WSW 28 54 15 29 997.4 - 14.6
01/01:30am 6.3 1.0 2.9 79 1.4 WSW 20 61 11 33 997.8 - 14.6
01/01:28am 6.4 0.7 3.0 79 1.4 W 22 70 12 38 997.7 - 14.6
01/01:16am 7.8 -3.1 3.8 76 1.7 WSW 50 70 27 38 997.1 - 14.6
01/01:00am 8.2 0.2 3.7 73 1.9 WNW 35 85 19 46 996.8 - 14.4
01/12:59am 8.3 0.3 3.8 73 2.0 WNW 35 85 19 46 996.7 - 14.4
01/12:50am 8.2 1.6 4.0 75 1.8 W 28 57 15 31 996.8 - 14.4
01/12:30am 8.0 4.2 3.7 74 1.9 W 13 65 7 35 996.8 - 14.4
01/12:21am 8.0 0.9 3.5 73 1.9 WNW 30 65 16 35 996.7 - 14.4
01/12:18am 8.0 4.5 3.3 72 2.0 N 11 63 6 34 997.0 - 14.4
01/12:04am 8.2 -0.4 2.4 67 2.5 WNW 37 89 20 48 996.6 - 14.4
01/12:00am 8.2 -0.5 2.2 66 2.5 W 37 69 20 37 996.7 996.7 14.4
 
Date/Time
EST
Temp
°C
App
Temp
°C
Dew
Point
Rel
Hum
%
Delta-T
°C
Wind Press
QNH
hPa
Press
MSL
hPa
Rain
since 9 am
mm
Dir
 
Spd
km/h
Gust
km/h
Spd
kts
Gust
kts
31/11:30pm 8.0 -0.5 3.1 71 2.1 W 37 69 20 37 996.9 - 14.4
31/11:12pm 7.7 -0.6 2.4 69 2.2 W 35 72 19 39 996.8 - 14.4
31/11:00pm 7.5 -5.2 3.2 74 1.8 W 59 95 32 51 996.4 - 14.4
31/10:48pm 7.1 -8.4 3.5 78 1.5 W 74 96 40 52 995.9 - 14.4
31/10:46pm 6.8 -4.9 3.6 80 1.4 W 54 96 29 52 996.5 - 14.4
31/10:32pm 7.1 -8.9 2.6 73 1.9 W 76 102 41 55 995.9 - 13.0
31/10:31pm 8.2 -2.3 3.7 73 1.9 W 48 102 26 55 995.1 - 12.8
31/10:30pm 9.0 -1.0 4.2 72 2.1 W 46 82 25 44 995.8 - 12.8
31/10:00pm 9.1 0.3 3.7 69 2.4 W 39 78 21 42 996.2 - 12.6
31/09:53pm 9.2 0.5 4.0 70 2.3 W 39 70 21 38 995.8 - 12.6
31/09:30pm 8.5 2.2 5.6 82 1.3 WNW 28 56 15 30 996.0 - 12.6
31/09:00pm 8.0 0.6 5.1 82 1.3 NW 33 69 18 37 996.0 996.0 12.6
31/08:30pm 7.4 0.9 4.5 82 1.3 NW 28 65 15 35 995.9 - 12.6
31/08:00pm 7.4 0.3 3.5 76 1.7 NNW 30 70 16 38 995.7 - 12.4
31/07:30pm 8.5 1.3 3.1 69 2.3 NW 30 67 16 36 995.2 - 11.6
31/07:12pm 8.9 1.3 2.9 66 2.6 WNW 32 65 17 35 995.4 - 11.4
31/07:10pm 8.9 0.4 2.9 66 2.6 W 37 65 20 35 995.0 - 11.4
31/07:07pm 9.0 0.4 2.8 65 2.6 NW 37 76 20 41 995.1 - 11.4
31/07:05pm 8.9 3.2 2.9 66 2.6 W 22 85 12 46 995.3 - 11.4
31/07:00pm 8.9 -3.5 2.7 65 2.6 WNW 57 85 31 46 994.9 - 11.4
31/06:58pm 8.8 -4.8 2.4 64 2.7 WNW 63 85 34 46 994.9 - 11.4
31/06:50pm 8.7 -3.7 2.5 65 2.6 W 57 102 31 55 995.0 - 11.4
31/06:45pm 8.7 -8.1 2.5 65 2.6 W 80 102 43 55 993.9 - 11.2
31/06:30pm 8.5 -3.8 3.1 69 2.3 W 57 89 31 48 995.1 - 11.0
31/06:03pm 7.7 -4.0 3.6 75 1.8 W 54 120 29 65 994.8 - 10.8
31/06:00pm 7.7 -9.3 3.6 75 1.8 W 82 120 44 65 994.0 994.1 10.8
31/05:51pm 7.2 -8.2 3.8 79 1.5 W 74 135 40 73 994.1 - 10.6
31/05:41pm 7.2 -12.2 4.0 80 1.4 W 95 130 51 70 993.6 - 10.2
31/05:30pm 8.0 -5.9 4.6 79 1.5 W 67 113 36 61 994.4 - 9.6
31/05:00pm 8.1 -6.1 5.0 81 1.4 W 69 102 37 55 993.6 - 8.6
31/04:48pm 8.5 -7.4 5.3 80 1.4 W 78 102 42 55 993.3 - 8.0
31/04:40pm 8.8 -2.9 5.5 80 1.5 W 56 115 30 62 993.5 - 7.6
31/04:38pm 8.7 -3.2 5.4 80 1.5 W 57 115 31 62 993.3 - 7.6
31/04:30pm 8.8 -8.0 5.4 79 1.5 W 83 111 45 60 992.8 - 7.2
31/04:29pm 9.0 -8.5 5.6 79 1.5 W 87 111 47 60 992.7 - 7.0
31/04:00pm 8.6 -5.0 6.4 86 1.0 W 67 104 36 56 992.5 - 6.8
31/03:30pm 9.1 -5.6 7.4 89 0.8 W 74 107 40 58 992.0 - 5.6
31/03:17pm 9.2 -7.0 7.3 88 0.9 W 82 113 44 61 990.8 - 5.2
31/03:00pm 10.1 -1.9 8.0 87 1.0 W 61 100 33 54 990.8 990.9 3.8
31/02:54pm 9.9 -1.8 7.7 86 1.1 W 59 96 32 52 991.1 - 3.4
31/02:30pm 11.0 -4.6 6.6 74 2.1 W 78 107 42 58 989.6 - 0.4
31/02:27pm 11.9 -5.0 6.6 70 2.5 W 85 107 46 58 989.1 - 0.0
31/02:25pm 14.0 3.3 6.4 60 3.7 WSW 52 106 28 57 988.9 - 0.0
31/02:00pm 16.3 9.9 5.3 48 5.3 N 28 85 15 46 989.5 - 0.0
31/01:33pm 16.5 9.2 5.5 48 5.3 N 33 69 18 37 989.7 - 0.0
31/01:30pm 16.5 8.4 5.2 47 5.4 NNW 37 70 20 38 990.0 - 0.0
31/01:09pm 17.0 7.5 5.0 45 5.8 NNW 44 95 24 51 989.8 - 0.0
31/01:07pm 17.1 9.7 5.1 45 5.8 N 33 95 18 51 990.2 - 0.0
31/01:00pm 17.0 7.6 4.7 44 5.9 NNW 43 91 23 49 989.9 - 0.0
31/12:30pm 17.0 6.8 5.0 45 5.8 NNW 48 98 26 53 990.7 - 0.0
31/12:00pm 16.9 7.1 5.2 46 5.7 N 46 98 25 53 991.7 991.8 0.0
31/11:50am 16.9 7.6 5.2 46 5.6 N 43 104 23 56 992.1 - 0.0
31/11:47am 16.6 2.1 4.6 45 5.7 N 70 104 38 56 991.6 - 0.0
31/11:30am 16.8 7.0 5.1 46 5.6 NNW 46 96 25 52 992.8 - 0.0
31/11:29am 16.7 7.2 5.0 46 5.6 NNW 44 96 24 52 992.5 - 0.0
31/11:00am 16.9 8.5 5.5 47 5.5 NNW 39 74 21 40 994.1 - 0.0
31/10:30am 16.7 9.6 5.6 48 5.4 N 32 69 17 37 994.8 - 0.0
31/10:00am 16.6 8.7 6.1 50 5.1 NNW 37 83 20 45 995.2 - 0.0
31/09:30am 16.3 8.0 5.9 50 5.1 NNW 39 83 21 45 995.8 - 0.0
31/09:00am 15.7 7.4 5.9 52 4.8 NNW 39 78 21 42 996.1 996.1 6.0
31/08:30am 15.3 7.8 6.3 55 4.4 NNW 35 74 19 40 997.1 - 6.0
31/08:00am 14.9 6.6 6.0 55 4.3 NNW 39 74 21 40 997.6 - 6.0
31/07:30am 15.0 6.3 5.8 54 4.4 NNW 41 70 22 38 997.8 - 6.0
31/07:00am 15.0 4.5 5.5 53 4.5 NNW 50 113 27 61 997.9 - 6.0
31/06:56am 15.0 5.3 5.8 54 4.4 NNW 46 113 25 61 997.2 - 6.0
31/06:30am 14.7 4.9 5.5 54 4.4 NNW 46 93 25 50 998.1 - 6.0
31/06:17am 14.8 5.6 5.3 53 4.5 NNW 43 89 23 48 998.0 - 6.0
31/06:00am 14.6 7.2 4.9 52 4.6 N 33 67 18 36 998.1 998.1 6.0
31/05:30am 14.8 7.0 4.8 51 4.7 NNW 35 85 19 46 998.9 - 6.0
31/05:06am 14.8 6.3 5.1 52 4.6 NNW 39 87 21 47 998.8 - 6.0
31/05:00am 14.8 7.7 5.3 53 4.5 NNW 32 65 17 35 999.4 - 6.0
31/04:39am 14.8 5.9 5.3 53 4.5 NNW 41 91 22 49 999.1 - 6.0
31/04:30am 14.7 7.5 5.8 55 4.3 NNW 33 70 18 38 999.7 - 6.0
31/04:00am 14.7 6.7 5.8 55 4.3 NNW 37 83 20 45 1000.1 - 6.0
31/03:30am 14.6 7.8 6.9 60 3.8 NNW 32 78 17 42 1000.8 - 6.0
31/03:00am 14.8 8.0 6.9 59 3.9 NNW 32 93 17 50 1001.0 1001.1 6.0
31/02:41am 14.8 8.0 6.9 59 3.9 NNW 32 74 17 40 1001.1 - 6.0
31/02:30am 14.9 8.8 6.7 58 4.0 NNW 28 50 15 27 1001.4 - 6.0
31/02:00am 14.7 8.1 7.7 63 3.5 NNW 32 69 17 37 1002.0 - 6.0
31/01:30am 14.6 7.8 7.6 63 3.5 NNW 33 67 18 36 1002.2 - 6.0
31/01:00am 14.9 8.2 7.2 60 3.8 N 32 70 17 38 1002.9 - 6.0
31/12:45am 14.8 8.8 6.9 59 3.9 NNW 28 63 15 34 1002.8 - 6.0
31/12:30am 14.4 10.9 7.2 62 3.5 NNW 15 43 8 23 1003.2 - 6.0
31/12:00am 14.5 11.1 7.5 63 3.5 NW 15 32 8 17 1003.9 1004.0 6.0
 
Date/Time
EST
Temp
°C
App
Temp
°C
Dew
Point
Rel
Hum
%
Delta-T
°C
Wind Press
QNH
hPa
Press
MSL
hPa
Rain
since 9 am
mm
Dir
 
Spd
km/h
Gust
km/h
Spd
kts
Gust
kts
30/11:30pm 14.9 10.2 7.7 62 3.6 NNW 22 61 12 33 1003.9 - 6.0
30/11:21pm 14.8 9.0 7.8 63 3.5 NNW 28 52 15 28 1003.7 - 6.0
30/11:00pm 14.7 11.4 8.0 64 3.4 NW 15 56 8 30 1004.4 - 6.0
30/10:43pm 14.6 7.9 8.1 65 3.3 W 33 54 18 29 1004.3 - 6.0
30/10:30pm 14.8 9.8 8.1 64 3.4 NNE 24 80 13 43 1004.3 - 6.0
30/10:08pm 14.7 7.4 8.6 67 3.1 WNW 37 85 20 46 1004.0 - 6.0
30/10:00pm 14.6 9.0 8.8 68 3.0 WNW 28 59 15 32 1004.7 - 6.0
30/09:46pm 14.8 8.4 9.2 69 2.9 NW 33 59 18 32 1004.9 - 6.0
30/09:30pm 14.5 11.5 9.3 71 2.7 N 15 39 8 21 1004.8 - 6.0
30/09:00pm 14.1 10.3 9.7 75 2.3 NNW 20 46 11 25 1005.1 1005.2 6.0
30/08:50pm 14.2 7.9 9.8 75 2.3 NW 33 61 18 33 1004.8 - 6.0
30/08:30pm 14.2 9.7 10.2 77 2.1 W 24 56 13 30 1005.2 - 6.0
30/08:00pm 13.7 7.6 10.5 81 1.7 W 33 54 18 29 1005.3 - 6.0
30/07:33pm 13.5 7.1 10.7 83 1.5 WNW 35 69 19 37 1005.6 - 6.0
30/07:30pm 13.6 6.5 10.8 83 1.5 W 39 69 21 37 1005.3 - 6.0
30/07:00pm 13.3 5.5 11.0 86 1.2 W 43 72 23 39 1005.3 - 6.0
30/06:58pm 13.2 5.7 10.7 85 1.3 W 41 72 22 39 1005.5 - 6.0
30/06:55pm 13.3 1.6 10.8 85 1.3 W 63 72 34 39 1004.8 - 5.6
30/06:40pm 13.8 7.4 10.8 82 1.6 WSW 35 61 19 33 1005.2 - 4.8
30/06:30pm 13.5 10.9 10.7 83 1.5 WNW 15 30 8 16 1005.5 - 4.6
30/06:00pm 13.9 8.6 11.1 83 1.5 W 30 63 16 34 1005.6 1005.6 4.6
30/05:30pm 13.8 7.2 11.5 86 1.2 W 37 70 20 38 1005.5 - 4.4
30/05:00pm 13.3 7.0 11.2 87 1.1 W 35 76 19 41 1005.5 - 4.4
30/04:30pm 13.9 7.0 10.3 79 1.9 W 37 70 20 38 1005.3 - 1.0
30/04:00pm 14.8 9.6 10.2 74 2.4 WNW 28 54 15 29 1005.2 - 0.0
30/03:55pm 14.8 8.6 10.2 74 2.4 WNW 33 70 18 38 1005.1 - 0.0
30/03:53pm 14.8 10.7 10.2 74 2.4 W 22 70 12 38 1005.5 - 0.0
30/03:30pm 14.6 5.5 10.0 74 2.4 WNW 48 87 26 47 1004.8 - 0.0
30/03:00pm 14.8 5.3 9.8 72 2.6 W 50 87 27 47 1004.8 1004.9 0.0
30/02:30pm 14.7 4.0 9.5 71 2.7 W 56 98 30 53 1004.4 - 0.0
30/02:00pm 14.8 4.0 9.2 69 2.9 WNW 56 95 30 51 1004.8 - 0.0
30/01:30pm 15.1 4.1 9.0 67 3.1 W 57 96 31 52 1004.6 - 0.0
30/01:00pm 15.0 2.8 9.1 68 3.0 WNW 63 100 34 54 1004.7 - 0.0
30/12:30pm 14.7 1.8 9.1 69 2.9 WNW 67 113 36 61 1005.2 - 0.0
30/12:00pm 14.4 2.2 9.0 70 2.8 WNW 63 104 34 56 1005.5 1005.5 0.0
30/11:38am 14.1 1.1 8.9 71 2.6 WNW 67 117 36 63 1005.1 - 0.0
30/11:30am 14.0 1.4 8.8 71 2.6 W 65 96 35 52 1006.3 - 0.0
30/11:20am 13.9 3.8 8.9 72 2.5 WNW 52 107 28 58 1006.6 - 0.0
30/11:00am 13.8 4.4 8.6 71 2.6 W 48 85 26 46 1007.2 - 0.0
30/10:30am 13.7 2.5 8.5 71 2.6 WNW 57 106 31 57 1007.1 - 0.0
30/10:00am 13.2 2.8 9.1 76 2.1 WNW 54 91 29 49 1007.0 - 0.0
30/09:55am 13.1 3.8 9.0 76 2.1 WNW 48 95 26 51 1007.5 - 0.0
30/09:52am 13.1 -0.4 9.0 76 2.1 WNW 70 95 38 51 1006.6 - 0.0
30/09:31am 12.9 3.2 9.0 77 2.0 WNW 50 96 27 52 1007.1 - 0.0
30/09:30am 12.9 3.2 9.0 77 2.0 WNW 50 78 27 42 1007.4 - 0.0
30/09:00am 12.6 3.3 9.1 79 1.8 W 48 89 26 48 1007.5 1007.6 13.6
30/08:30am 12.5 1.6 8.8 78 1.9 WNW 56 104 30 56 1007.0 - 13.6
30/08:19am 12.4 4.3 8.7 78 1.9 W 41 89 22 48 1007.5 - 13.6
30/08:16am 12.4 -0.6 8.9 79 1.8 WNW 67 89 36 48 1006.9 - 13.6
30/08:00am 12.0 3.6 9.0 82 1.5 WNW 43 80 23 43 1007.1 - 13.6
30/07:30am 12.1 3.3 9.5 84 1.3 WNW 46 85 25 46 1007.1 - 13.6
30/07:00am 12.3 4.0 9.9 85 1.2 WNW 44 72 24 39 1007.1 - 13.6
30/06:54am 12.4 4.3 10.0 85 1.2 WNW 43 72 23 39 1007.1 - 13.6
30/06:30am 12.3 4.9 10.0 86 1.2 W 39 69 21 37 1007.4 - 13.6
30/06:00am 11.5 2.6 9.1 85 1.2 W 46 85 25 46 1007.1 1007.1 13.6
30/05:58am 11.6 4.0 9.2 85 1.2 W 39 85 21 46 1007.1 - 13.6
30/05:54am 11.7 -1.2 9.1 84 1.3 W 67 85 36 46 1006.6 - 13.6
30/05:53am 11.6 -1.8 8.8 83 1.4 W 69 85 37 46 1006.2 - 13.6
30/05:30am 12.9 5.1 9.9 82 1.5 W 41 65 22 35 1007.0 - 13.0
30/05:00am 12.9 4.7 9.7 81 1.6 W 43 72 23 39 1006.9 - 13.0
30/04:30am 13.0 3.3 9.1 77 2.0 W 50 78 27 42 1006.5 - 13.0
30/04:00am 12.9 3.1 10.1 83 1.4 W 52 82 28 44 1006.5 - 13.0
30/03:30am 12.7 4.2 10.6 87 1.1 W 46 72 25 39 1006.1 - 13.0
30/03:07am 11.4 1.0 9.3 87 1.1 W 54 102 29 55 1005.5 - 11.4
30/03:00am 12.6 4.4 10.3 86 1.2 W 44 80 24 43 1006.1 1006.1 8.8
30/02:30am 13.1 5.0 10.8 86 1.2 W 44 80 24 43 1006.0 - 6.4
30/02:00am 13.0 5.1 10.7 86 1.2 W 43 80 23 43 1006.0 - 6.4
30/01:39am 13.0 5.1 10.7 86 1.2 W 43 95 23 51 1006.0 - 6.4
30/01:30am 12.9 0.4 10.6 86 1.2 W 67 95 36 51 1005.2 - 6.4
30/01:00am 13.0 5.5 10.9 87 1.1 W 41 74 22 40 1005.7 - 5.6
30/12:30am 12.6 4.9 10.3 86 1.2 W 41 76 22 41 1005.8 - 5.4
30/12:07am 13.2 4.1 10.0 81 1.7 W 48 72 26 39 1005.0 - 4.8
30/12:00am 13.4 6.0 10.0 80 1.8 NW 39 78 21 42 1005.1 1005.2 4.8
 
Date/Time
EST
Temp
°C
App
Temp
°C
Dew
Point
Rel
Hum
%
Delta-T
°C
Wind Press
QNH
hPa
Press
MSL
hPa
Rain
since 9 am
mm
Dir
 
Spd
km/h
Gust
km/h
Spd
kts
Gust
kts
29/11:30pm 13.4 6.0 10.0 80 1.8 W 39 80 21 43 1005.3 - 4.8
29/11:00pm 13.7 6.1 10.5 81 1.7 W 41 87 22 47 1005.0 - 4.8
29/10:30pm 13.7 5.6 10.9 83 1.5 W 44 83 24 45 1004.8 - 4.8
29/10:00pm 13.5 5.2 10.1 80 1.8 W 44 72 24 39 1004.4 - 4.8

Other Formats:

Comma delimited format used in spreadsheet applications
http://www.bom.gov.au/fwo/IDV60801/IDV60801.94893.axf

JavaScript Object Notation format (JSON) in row-major order
http://www.bom.gov.au/fwo/IDV60801/IDV60801.94893.json